createdAt,value
2022-09-18T00:02:08.743Z,12.3
2022-09-18T00:05:08.696Z,12.3
2022-09-18T00:08:08.701Z,12.3
2022-09-18T00:11:08.706Z,12.3
2022-09-18T00:14:08.691Z,12.3
2022-09-18T00:17:09.322Z,12.3
2022-09-18T00:20:08.694Z,12.3
2022-09-18T00:23:08.695Z,12.3
2022-09-18T00:26:08.697Z,12.3
2022-09-18T00:29:08.694Z,12.3
2022-09-18T00:32:08.712Z,12.3
2022-09-18T00:35:08.692Z,12.3
2022-09-18T00:38:08.696Z,12.3
2022-09-18T00:41:08.703Z,12.3
2022-09-18T00:44:08.692Z,12.3
2022-09-18T00:47:08.696Z,12.3
2022-09-18T00:50:08.688Z,12.3
2022-09-18T00:53:08.691Z,12.3
2022-09-18T00:56:08.696Z,12.3
2022-09-18T00:59:08.697Z,12.3
2022-09-18T01:02:08.766Z,12.3
2022-09-18T01:05:08.703Z,12.3
2022-09-18T01:08:08.696Z,12.3
2022-09-18T01:11:08.691Z,12.25
2022-09-18T01:14:08.688Z,12.25
2022-09-18T01:17:08.687Z,12.25
2022-09-18T01:20:08.701Z,12.25
2022-09-18T01:23:08.698Z,12.2
2022-09-18T01:26:08.694Z,12.2
2022-09-18T01:29:08.702Z,12.2
2022-09-18T01:32:08.699Z,12.2
2022-09-18T01:35:14.138Z,12.2
2022-09-18T01:38:08.701Z,12.2
2022-09-18T01:41:08.702Z,12.2
2022-09-18T01:44:08.696Z,12.2
2022-09-18T01:47:08.685Z,12.2
2022-09-18T01:50:08.690Z,12.2
2022-09-18T01:53:08.702Z,12.2
2022-09-18T01:56:08.701Z,12.2
2022-09-18T01:59:08.692Z,12.2
2022-09-18T02:02:08.756Z,12.2
2022-09-18T02:05:08.700Z,12.2
2022-09-18T02:08:08.699Z,12.2
2022-09-18T02:11:08.686Z,12.25
2022-09-18T02:14:08.694Z,12.25
2022-09-18T02:17:08.706Z,12.25
2022-09-18T02:20:08.697Z,12.25
2022-09-18T02:23:08.713Z,12.25
2022-09-18T02:26:08.698Z,12.2
2022-09-18T02:29:08.713Z,12.2
2022-09-18T02:32:08.701Z,12.2
2022-09-18T02:35:08.712Z,12.2
2022-09-18T02:38:08.703Z,12.2
2022-09-18T02:41:08.712Z,12.15
2022-09-18T02:44:08.707Z,12.15
2022-09-18T02:47:08.694Z,12.15
2022-09-18T02:50:08.694Z,12.15
2022-09-18T02:53:08.708Z,12.15
2022-09-18T02:56:08.704Z,12.15
2022-09-18T02:59:08.704Z,12.15
2022-09-18T03:02:08.813Z,12.15
2022-09-18T03:05:08.705Z,12.15
2022-09-18T03:08:08.694Z,12.15
2022-09-18T03:11:08.711Z,12.15
2022-09-18T03:14:08.696Z,12.15
2022-09-18T03:17:08.693Z,12.15
2022-09-18T03:20:08.706Z,12.15
2022-09-18T03:23:08.703Z,12.2
2022-09-18T03:26:08.694Z,12.2
2022-09-18T03:29:08.699Z,12.2
2022-09-18T03:32:08.698Z,12.2
2022-09-18T03:35:08.712Z,12.2
2022-09-18T03:38:08.707Z,12.2
2022-09-18T03:41:08.705Z,12.2
2022-09-18T03:44:08.702Z,12.2
2022-09-18T03:47:08.699Z,12.2
2022-09-18T03:50:08.699Z,12.2
2022-09-18T03:53:08.733Z,12.2
2022-09-18T03:56:08.704Z,12.2
2022-09-18T03:59:08.700Z,12.2
2022-09-18T04:02:08.733Z,12.2
2022-09-18T04:05:08.705Z,12.2
2022-09-18T04:08:08.706Z,12.2
2022-09-18T04:11:08.712Z,12.2
2022-09-18T04:14:08.698Z,12.2
2022-09-18T04:17:08.707Z,12.2
2022-09-18T04:20:08.701Z,12.25
2022-09-18T04:23:08.702Z,12.25
2022-09-18T04:26:08.705Z,12.25
2022-09-18T04:29:08.705Z,12.25
2022-09-18T04:32:08.703Z,12.25
2022-09-18T04:35:08.715Z,12.25
2022-09-18T04:38:08.705Z,12.25
2022-09-18T04:41:08.705Z,12.25
2022-09-18T04:44:08.707Z,12.25
2022-09-18T04:47:08.706Z,12.25
2022-09-18T04:50:08.725Z,12.2
2022-09-18T04:53:08.706Z,12.2
2022-09-18T04:56:08.712Z,12.2
2022-09-18T04:59:08.715Z,12.2
2022-09-18T05:02:08.810Z,12.2
2022-09-18T05:05:08.711Z,12.2
2022-09-18T05:08:08.708Z,12.2
2022-09-18T05:11:08.711Z,12.2
2022-09-18T05:14:08.709Z,12.2
2022-09-18T05:17:08.738Z,12.2
2022-09-18T05:20:08.749Z,12.2
2022-09-18T05:23:09.301Z,12.25
2022-09-18T05:26:09.256Z,12.25
2022-09-18T05:29:09.258Z,12.25
2022-09-18T05:32:09.241Z,12.25
2022-09-18T05:35:09.235Z,12.25
2022-09-18T05:38:09.239Z,12.25
2022-09-18T05:41:09.240Z,12.3
2022-09-18T05:44:09.310Z,12.3
2022-09-18T05:47:09.236Z,12.3
2022-09-18T05:50:09.236Z,12.3
2022-09-18T05:53:09.255Z,12.3
2022-09-18T05:56:09.250Z,12.3
2022-09-18T05:59:09.247Z,12.3
2022-09-18T06:02:09.310Z,12.3
2022-09-18T06:05:09.245Z,12.3
2022-09-18T06:08:09.253Z,12.3
2022-09-18T06:11:09.245Z,12.3
2022-09-18T06:14:09.238Z,12.3
2022-09-18T06:17:09.245Z,12.3
2022-09-18T06:20:09.248Z,12.3
2022-09-18T06:23:09.245Z,12.3
2022-09-18T06:26:12.749Z,12.3
2022-09-18T06:29:09.273Z,12.35
2022-09-18T06:32:09.259Z,12.35
2022-09-18T06:35:09.258Z,12.35
2022-09-18T06:38:09.276Z,12.35
2022-09-18T06:41:09.253Z,12.4
2022-09-18T06:44:09.253Z,12.4
2022-09-18T06:47:09.249Z,12.4
2022-09-18T06:50:09.254Z,12.45
2022-09-18T06:53:12.614Z,12.45
2022-09-18T06:56:09.242Z,12.5
2022-09-18T06:59:09.250Z,12.5
2022-09-18T07:02:09.313Z,12.5
2022-09-18T07:05:09.257Z,12.5
2022-09-18T07:08:09.250Z,12.5
2022-09-18T07:11:09.251Z,12.5
2022-09-18T07:14:09.254Z,12.5
2022-09-18T07:17:09.977Z,12.55
2022-09-18T07:20:09.247Z,12.55
2022-09-18T07:23:09.256Z,12.55
2022-09-18T07:26:09.252Z,12.55
2022-09-18T07:29:10.180Z,12.6
2022-09-18T07:32:09.250Z,12.6
2022-09-18T07:35:09.264Z,12.6
2022-09-18T07:38:09.263Z,12.6
2022-09-18T07:41:09.259Z,12.65
2022-09-18T07:44:09.268Z,12.65
2022-09-18T07:47:09.259Z,12.65
2022-09-18T07:50:09.246Z,12.7
2022-09-18T07:53:09.283Z,12.7
2022-09-18T07:56:09.259Z,12.8
2022-09-18T07:59:09.263Z,12.8
2022-09-18T08:02:09.354Z,12.8
2022-09-18T08:05:09.279Z,12.8
2022-09-18T08:08:09.333Z,12.8
2022-09-18T08:11:09.269Z,12.8
2022-09-18T08:14:09.395Z,12.8
2022-09-18T08:17:09.267Z,12.85
2022-09-18T08:20:09.271Z,12.85
2022-09-18T08:23:09.302Z,12.9
2022-09-18T08:26:09.276Z,13
2022-09-18T08:29:09.276Z,13.05
2022-09-18T08:32:10.057Z,13.05
2022-09-18T08:35:09.287Z,13.05
2022-09-18T08:38:09.271Z,13.15
2022-09-18T08:41:09.292Z,13.15
2022-09-18T08:44:09.278Z,13.15
2022-09-18T08:47:09.274Z,13.15
2022-09-18T08:50:09.288Z,13.15
2022-09-18T08:53:09.279Z,13.2
2022-09-18T08:56:09.271Z,13.25
2022-09-18T08:59:09.286Z,13.25
2022-09-18T09:02:09.322Z,13.25
2022-09-18T09:05:09.267Z,13.2
2022-09-18T09:08:09.274Z,13.2
2022-09-18T09:11:09.269Z,13.2
2022-09-18T09:14:09.274Z,13.25
2022-09-18T09:17:09.270Z,13.25
2022-09-18T09:20:09.266Z,13.25
2022-09-18T09:23:09.283Z,13.25
2022-09-18T09:26:09.280Z,13.25
2022-09-18T09:29:09.293Z,13.25
2022-09-18T09:32:09.285Z,13.25
2022-09-18T09:35:09.286Z,13.25
2022-09-18T09:38:09.283Z,13.25
2022-09-18T09:41:09.289Z,13.25
2022-09-18T09:44:09.293Z,13.25
2022-09-18T09:47:09.297Z,13.3
2022-09-18T09:50:09.309Z,13.35
2022-09-18T09:53:09.286Z,13.35
2022-09-18T09:56:09.285Z,13.4
2022-09-18T09:59:09.285Z,13.4
2022-09-18T10:02:09.348Z,13.4
2022-09-18T10:05:09.282Z,13.45
2022-09-18T10:08:09.279Z,13.45
2022-09-18T10:11:09.298Z,13.45
2022-09-18T10:14:09.281Z,13.45
2022-09-18T10:17:09.319Z,13.5
2022-09-18T10:20:09.284Z,13.55
2022-09-18T10:23:09.272Z,13.6
2022-09-18T10:26:09.289Z,13.65
2022-09-18T10:29:09.283Z,13.75
2022-09-18T10:32:09.287Z,13.75
2022-09-18T10:35:09.274Z,13.75
2022-09-18T10:38:09.285Z,13.75
2022-09-18T10:41:09.274Z,13.75
2022-09-18T10:44:09.277Z,13.75
2022-09-18T10:47:09.279Z,13.75
2022-09-18T10:50:09.279Z,13.7
2022-09-18T10:53:09.277Z,13.7
2022-09-18T10:56:09.352Z,13.7
2022-09-18T10:59:09.305Z,13.7
2022-09-18T11:02:09.364Z,13.7
2022-09-18T11:05:09.320Z,13.7
2022-09-18T11:08:09.306Z,13.7
2022-09-18T11:11:09.311Z,13.7
2022-09-18T11:14:09.314Z,13.7
2022-09-18T11:17:09.316Z,13.7
2022-09-18T11:20:09.301Z,13.75
2022-09-18T11:23:09.307Z,13.75
2022-09-18T11:26:09.327Z,13.75
2022-09-18T11:29:09.300Z,13.75
2022-09-18T11:32:09.331Z,13.75
2022-09-18T11:35:09.320Z,13.75
2022-09-18T11:38:09.309Z,13.75
2022-09-18T11:41:09.316Z,13.8
2022-09-18T11:44:09.305Z,13.8
2022-09-18T11:47:09.381Z,13.8
2022-09-18T11:50:09.328Z,13.8
2022-09-18T11:53:09.297Z,13.8
2022-09-18T11:56:09.307Z,13.8
2022-09-18T11:59:09.313Z,13.75
2022-09-18T12:02:09.342Z,13.7
2022-09-18T12:05:09.312Z,13.7
2022-09-18T12:08:07.952Z,13.7
2022-09-18T12:11:07.943Z,13.7
2022-09-18T12:14:07.940Z,13.75
2022-09-18T12:17:07.955Z,13.8
2022-09-18T12:20:07.934Z,13.8
2022-09-18T12:23:07.946Z,13.8
2022-09-18T12:26:07.940Z,13.85
2022-09-18T12:29:07.927Z,13.85
2022-09-18T12:32:07.928Z,13.85
2022-09-18T12:35:07.925Z,13.85
2022-09-18T12:38:07.933Z,13.9
2022-09-18T12:41:08.610Z,13.9
2022-09-18T12:44:08.589Z,13.9
2022-09-18T12:47:08.597Z,13.95
2022-09-18T12:50:08.597Z,13.95
2022-09-18T12:53:10.023Z,13.95
2022-09-18T12:56:08.578Z,13.95
2022-09-18T12:59:08.569Z,13.95
2022-09-18T13:02:08.575Z,13.95
2022-09-18T13:05:08.583Z,13.95
2022-09-18T13:08:08.577Z,13.9
2022-09-18T13:11:08.570Z,13.9
2022-09-18T13:14:08.575Z,13.9
2022-09-18T13:17:09.312Z,13.9
2022-09-18T13:20:09.312Z,13.9
2022-09-18T13:23:09.285Z,13.9
2022-09-18T13:26:09.301Z,13.9
2022-09-18T13:29:09.286Z,13.95
2022-09-18T13:32:09.286Z,13.95
2022-09-18T13:35:09.285Z,13.95
2022-09-18T13:38:09.287Z,13.95
2022-09-18T13:41:09.278Z,13.95
2022-09-18T13:44:09.277Z,13.95
2022-09-18T13:47:09.275Z,13.95
2022-09-18T13:50:09.274Z,13.95
2022-09-18T13:53:09.274Z,13.95
2022-09-18T13:56:09.273Z,13.95
2022-09-18T13:59:09.268Z,13.95
2022-09-18T14:02:09.331Z,13.95
2022-09-18T14:05:09.271Z,13.95
2022-09-18T14:08:09.268Z,13.95
2022-09-18T14:11:15.276Z,13.9
2022-09-18T14:14:09.265Z,13.9
2022-09-18T14:17:09.265Z,13.9
2022-09-18T14:20:09.266Z,13.9
2022-09-18T14:23:09.269Z,13.9
2022-09-18T14:26:09.259Z,13.8
2022-09-18T14:29:09.263Z,13.8
2022-09-18T14:32:09.262Z,13.8
2022-09-18T14:35:09.253Z,13.8
2022-09-18T14:38:09.274Z,13.8
2022-09-18T14:41:09.298Z,13.8
2022-09-18T14:44:09.270Z,13.75
2022-09-18T14:47:09.271Z,13.75
2022-09-18T14:50:09.512Z,13.75
2022-09-18T14:53:09.313Z,13.75
2022-09-18T14:56:09.310Z,13.75
2022-09-18T14:59:09.309Z,13.7
2022-09-18T15:02:12.379Z,13.65
2022-09-18T15:05:09.310Z,13.65
2022-09-18T15:08:09.309Z,13.65
2022-09-18T15:11:09.301Z,13.65
2022-09-18T15:14:09.325Z,13.65
2022-09-18T15:17:09.323Z,13.65
2022-09-18T15:20:09.305Z,13.65
2022-09-18T15:23:09.338Z,13.6
2022-09-18T15:26:09.328Z,13.6
2022-09-18T15:29:09.321Z,13.55
2022-09-18T15:32:09.340Z,13.55
2022-09-18T15:35:09.326Z,13.5
2022-09-18T15:38:09.350Z,13.5
2022-09-18T15:41:09.346Z,13.5
2022-09-18T15:44:09.347Z,13.45
2022-09-18T15:47:09.346Z,13.45
2022-09-18T15:50:09.359Z,13.45
2022-09-18T15:53:09.341Z,13.4
2022-09-18T15:56:09.352Z,13.4
2022-09-18T15:59:09.354Z,13.4
2022-09-18T16:02:09.395Z,13.35
2022-09-18T16:05:09.347Z,13.35
2022-09-18T16:08:09.354Z,13.3
2022-09-18T16:11:09.339Z,13.25
2022-09-18T16:14:09.351Z,13.25
2022-09-18T16:17:09.336Z,13.25
2022-09-18T16:20:09.345Z,13.25
2022-09-18T16:23:09.349Z,13.2
2022-09-18T16:26:09.350Z,13.15
2022-09-18T16:29:09.341Z,13.15
2022-09-18T16:32:09.349Z,13.1
2022-09-18T16:35:09.353Z,13.05
2022-09-18T16:38:09.348Z,13.05
2022-09-18T16:41:09.346Z,13
2022-09-18T16:44:09.336Z,12.95
2022-09-18T16:47:09.352Z,12.95
2022-09-18T16:50:09.357Z,12.95
2022-09-18T16:53:09.347Z,12.9
2022-09-18T16:56:09.349Z,12.9
2022-09-18T16:59:09.348Z,12.9
2022-09-18T17:02:09.349Z,12.85
2022-09-18T17:05:09.359Z,12.85
2022-09-18T17:08:09.352Z,12.85
2022-09-18T17:11:09.352Z,12.85
2022-09-18T17:14:09.346Z,12.85
2022-09-18T17:17:09.391Z,12.8
2022-09-18T17:20:09.350Z,12.8
2022-09-18T17:23:09.362Z,12.75
2022-09-18T17:26:09.349Z,12.75
2022-09-18T17:29:09.355Z,12.75
2022-09-18T17:32:09.342Z,12.75
2022-09-18T17:35:09.353Z,12.7
2022-09-18T17:38:09.353Z,12.7
2022-09-18T17:41:09.388Z,12.65
2022-09-18T17:44:09.359Z,12.65
2022-09-18T17:47:09.353Z,12.6
2022-09-18T17:50:09.351Z,12.6
2022-09-18T17:53:09.337Z,12.6
2022-09-18T17:56:09.354Z,12.6
2022-09-18T17:59:09.353Z,12.55
2022-09-18T18:02:09.415Z,12.55
2022-09-18T18:05:09.355Z,12.55
2022-09-18T18:08:09.343Z,12.55
2022-09-18T18:11:09.351Z,12.5
2022-09-18T18:14:09.355Z,12.5
2022-09-18T18:17:09.346Z,12.5
2022-09-18T18:20:09.356Z,12.5
2022-09-18T18:23:12.605Z,12.5
2022-09-18T18:26:09.366Z,12.5
2022-09-18T18:29:09.342Z,12.5
2022-09-18T18:32:09.348Z,12.4
2022-09-18T18:35:09.358Z,12.4
2022-09-18T18:38:09.359Z,12.4
2022-09-18T18:41:09.357Z,12.4
2022-09-18T18:44:09.359Z,12.4
2022-09-18T18:47:09.357Z,12.4
2022-09-18T18:50:09.356Z,12.4
2022-09-18T18:53:09.362Z,12.35
2022-09-18T18:56:09.362Z,12.3
2022-09-18T18:59:09.358Z,12.3
2022-09-18T19:02:09.485Z,12.3
2022-09-18T19:05:09.356Z,12.25
2022-09-18T19:08:09.355Z,12.2
2022-09-18T19:11:09.358Z,12.2
2022-09-18T19:14:09.359Z,12.2
2022-09-18T19:17:09.359Z,12.1
2022-09-18T19:20:09.354Z,12.1
2022-09-18T19:23:09.358Z,12.1
2022-09-18T19:26:09.360Z,12.1
2022-09-18T19:29:09.358Z,12.05
2022-09-18T19:32:09.351Z,12
2022-09-18T19:35:09.354Z,12
2022-09-18T19:38:09.343Z,12
2022-09-18T19:41:09.355Z,11.95
2022-09-18T19:44:09.355Z,11.95
2022-09-18T19:47:09.362Z,11.95
2022-09-18T19:50:09.365Z,11.85
2022-09-18T19:53:09.344Z,11.85
2022-09-18T19:56:18.583Z,11.85
2022-09-18T19:59:09.353Z,11.8
2022-09-18T20:02:09.425Z,11.8
2022-09-18T20:05:09.361Z,11.75
2022-09-18T20:08:09.357Z,11.75
2022-09-18T20:11:09.359Z,11.7
2022-09-18T20:14:09.360Z,11.7
2022-09-18T20:17:09.360Z,11.65
2022-09-18T20:20:10.197Z,11.65
2022-09-18T20:23:09.361Z,11.6
2022-09-18T20:26:09.433Z,11.6
2022-09-18T20:29:11.170Z,11.6
2022-09-18T20:32:09.370Z,11.6
2022-09-18T20:35:09.363Z,11.55
2022-09-18T20:38:09.364Z,11.55
2022-09-18T20:41:09.369Z,11.55
2022-09-18T20:44:09.366Z,11.55
2022-09-18T20:47:09.367Z,11.5
2022-09-18T20:50:09.352Z,11.45
2022-09-18T20:53:09.369Z,11.45
2022-09-18T20:56:09.366Z,11.45
2022-09-18T20:59:09.359Z,11.4
2022-09-18T21:02:09.397Z,11.4
2022-09-18T21:05:09.356Z,11.4
2022-09-18T21:08:09.376Z,11.35
2022-09-18T21:11:09.368Z,11.35
2022-09-18T21:14:09.364Z,11.35
2022-09-18T21:17:09.369Z,11.3
2022-09-18T21:20:09.369Z,11.3
2022-09-18T21:23:09.373Z,11.3
2022-09-18T21:26:09.377Z,11.25
2022-09-18T21:29:09.375Z,11.25
2022-09-18T21:32:09.379Z,11.25
2022-09-18T21:35:09.373Z,11.2
2022-09-18T21:38:12.738Z,11.15
2022-09-18T21:41:09.384Z,11.1
2022-09-18T21:44:09.377Z,11.1
2022-09-18T21:47:09.380Z,11.05
2022-09-18T21:50:09.376Z,11.05
2022-09-18T21:53:09.379Z,11.05
2022-09-18T21:56:09.380Z,11
2022-09-18T21:59:09.374Z,11
2022-09-18T22:02:09.442Z,11
2022-09-18T22:05:09.417Z,11
2022-09-18T22:08:09.382Z,10.95
2022-09-18T22:11:09.384Z,10.95
2022-09-18T22:14:09.379Z,10.95
2022-09-18T22:17:09.379Z,10.9
2022-09-18T22:20:09.405Z,10.9
2022-09-18T22:23:09.393Z,10.85
2022-09-18T22:26:09.407Z,10.85
2022-09-18T22:29:09.397Z,10.85
2022-09-18T22:32:09.383Z,10.75
2022-09-18T22:35:09.395Z,10.75
2022-09-18T22:38:09.382Z,10.75
2022-09-18T22:41:09.384Z,10.75
2022-09-18T22:44:09.455Z,10.75
2022-09-18T22:47:09.407Z,10.65
2022-09-18T22:50:09.401Z,10.65
2022-09-18T22:53:09.405Z,10.65
2022-09-18T22:56:09.390Z,10.65
2022-09-18T22:59:09.389Z,10.65
2022-09-18T23:02:09.412Z,10.65
2022-09-18T23:05:09.387Z,10.55
2022-09-18T23:08:09.396Z,10.55
2022-09-18T23:11:09.385Z,10.55
2022-09-18T23:14:09.391Z,10.55
2022-09-18T23:17:09.385Z,10.55
2022-09-18T23:20:09.394Z,10.5
2022-09-18T23:23:09.410Z,10.5
2022-09-18T23:26:09.394Z,10.5
2022-09-18T23:29:09.390Z,10.45
2022-09-18T23:32:09.389Z,10.45
2022-09-18T23:35:09.389Z,10.45
2022-09-18T23:38:09.398Z,10.4
2022-09-18T23:41:09.387Z,10.4
2022-09-18T23:44:09.396Z,10.4
2022-09-18T23:47:09.391Z,10.35
2022-09-18T23:50:09.402Z,10.35
2022-09-18T23:53:09.396Z,10.35
2022-09-18T23:56:09.395Z,10.35
2022-09-18T23:59:09.392Z,10.35
